Allport, Arkansas
Current Conditions -  °F | °C
As of 11:15 AM on Thursday 27 Nov 2014 (Local Time) from KSGT Reporting Station
Few Clouds Few Clouds  
Wind Chill: 39°   Ceiling: Unl
Heat Index: 43°   Visibility: 10mi
Dew Point: 27°   Wind: 6mph
Humidity: 53%   Direction: 330°NNW
Pressure: 30.56"   Gusts: NA
Location:  34.5894°N, 91.9107°W
Report Text: KSGT 271715Z AUTO 33005KT 10SM FEW031 06/M03 A3056 RMK AO1
Loading
Personal Weather Stations






























Interactive Weather Map New forecast layout! Learn more

10-Day Weather Forecast

Advertisements
Track Severe Weather on mobile